sensor_id;sensor_type;location;lat;lon;timestamp;P1;durP1;ratioP1;P2;durP2;ratioP2
52057;SDS011;38063;53.210;6.504;2023-07-16T00:02:12;8.30;;;2.17;;
52057;SDS011;38063;53.210;6.504;2023-07-16T00:04:38;7.15;;;2.25;;
52057;SDS011;38063;53.210;6.504;2023-07-16T00:07:04;10.60;;;2.30;;
52057;SDS011;38063;53.210;6.504;2023-07-16T00:09:30;9.00;;;2.20;;
52057;SDS011;38063;53.210;6.504;2023-07-16T00:11:56;9.82;;;2.60;;
52057;SDS011;38063;53.210;6.504;2023-07-16T00:14:22;8.93;;;2.95;;
52057;SDS011;38063;53.210;6.504;2023-07-16T00:16:47;6.68;;;2.45;;
52057;SDS011;38063;53.210;6.504;2023-07-16T00:19:14;7.35;;;2.13;;
52057;SDS011;38063;53.210;6.504;2023-07-16T00:21:39;8.40;;;2.30;;
52057;SDS011;38063;53.210;6.504;2023-07-16T00:24:05;9.35;;;2.50;;
52057;SDS011;38063;53.210;6.504;2023-07-16T00:26:31;8.98;;;3.35;;
52057;SDS011;38063;53.210;6.504;2023-07-16T00:28:56;9.82;;;3.03;;
52057;SDS011;38063;53.210;6.504;2023-07-16T00:31:22;9.52;;;2.70;;
52057;SDS011;38063;53.210;6.504;2023-07-16T00:33:48;9.63;;;2.40;;
52057;SDS011;38063;53.210;6.504;2023-07-16T00:36:13;12.93;;;2.60;;
52057;SDS011;38063;53.210;6.504;2023-07-16T00:38:39;15.40;;;3.05;;
52057;SDS011;38063;53.210;6.504;2023-07-16T00:41:06;10.95;;;2.72;;
52057;SDS011;38063;53.210;6.504;2023-07-16T00:43:32;8.90;;;2.53;;
52057;SDS011;38063;53.210;6.504;2023-07-16T00:45:57;4.88;;;2.38;;
52057;SDS011;38063;53.210;6.504;2023-07-16T00:48:23;9.20;;;3.00;;
52057;SDS011;38063;53.210;6.504;2023-07-16T00:50:50;9.63;;;2.50;;
52057;SDS011;38063;53.210;6.504;2023-07-16T00:53:17;7.97;;;2.42;;
52057;SDS011;38063;53.210;6.504;2023-07-16T00:55:44;9.95;;;2.30;;
52057;SDS011;38063;53.210;6.504;2023-07-16T00:58:10;13.10;;;2.50;;
52057;SDS011;38063;53.210;6.504;2023-07-16T01:00:37;9.75;;;2.67;;
52057;SDS011;38063;53.210;6.504;2023-07-16T01:03:04;9.52;;;2.30;;
52057;SDS011;38063;53.210;6.504;2023-07-16T01:08:21;15.27;;;2.83;;
52057;SDS011;38063;53.210;6.504;2023-07-16T01:11:10;11.85;;;3.17;;
52057;SDS011;38063;53.210;6.504;2023-07-16T01:13:37;9.60;;;3.40;;
52057;SDS011;38063;53.210;6.504;2023-07-16T01:16:03;6.55;;;2.58;;
52057;SDS011;38063;53.210;6.504;2023-07-16T01:18:29;10.10;;;2.80;;
52057;SDS011;38063;53.210;6.504;2023-07-16T01:20:55;13.45;;;3.47;;
52057;SDS011;38063;53.210;6.504;2023-07-16T01:23:26;8.60;;;2.80;;
52057;SDS011;38063;53.210;6.504;2023-07-16T01:29:05;7.50;;;2.53;;
52057;SDS011;38063;53.210;6.504;2023-07-16T01:31:31;9.93;;;2.85;;
52057;SDS011;38063;53.210;6.504;2023-07-16T01:33:58;8.40;;;2.63;;
52057;SDS011;38063;53.210;6.504;2023-07-16T01:36:25;7.78;;;3.08;;
52057;SDS011;38063;53.210;6.504;2023-07-16T01:38:53;8.60;;;2.40;;
52057;SDS011;38063;53.210;6.504;2023-07-16T01:41:18;7.63;;;2.25;;
52057;SDS011;38063;53.210;6.504;2023-07-16T01:43:44;11.43;;;3.25;;
52057;SDS011;38063;53.210;6.504;2023-07-16T01:46:10;9.80;;;2.88;;
52057;SDS011;38063;53.210;6.504;2023-07-16T01:48:36;11.35;;;2.42;;
52057;SDS011;38063;53.210;6.504;2023-07-16T01:51:03;11.10;;;2.08;;
52057;SDS011;38063;53.210;6.504;2023-07-16T01:53:29;9.27;;;2.50;;
52057;SDS011;38063;53.210;6.504;2023-07-16T01:55:55;8.90;;;2.35;;
52057;SDS011;38063;53.210;6.504;2023-07-16T01:58:20;10.05;;;2.70;;
52057;SDS011;38063;53.210;6.504;2023-07-16T02:00:47;15.50;;;2.55;;
52057;SDS011;38063;53.210;6.504;2023-07-16T02:03:14;5.68;;;2.30;;
52057;SDS011;38063;53.210;6.504;2023-07-16T02:05:39;7.85;;;2.78;;
52057;SDS011;38063;53.210;6.504;2023-07-16T02:08:05;6.72;;;2.25;;
52057;SDS011;38063;53.210;6.504;2023-07-16T02:10:31;9.20;;;2.85;;
52057;SDS011;38063;53.210;6.504;2023-07-16T02:12:57;11.93;;;2.65;;
52057;SDS011;38063;53.210;6.504;2023-07-16T02:15:22;9.93;;;2.20;;
52057;SDS011;38063;53.210;6.504;2023-07-16T02:17:48;9.00;;;2.38;;
52057;SDS011;38063;53.210;6.504;2023-07-16T02:20:14;8.77;;;2.53;;
52057;SDS011;38063;53.210;6.504;2023-07-16T02:22:39;11.05;;;3.08;;
52057;SDS011;38063;53.210;6.504;2023-07-16T02:25:05;9.73;;;2.70;;
52057;SDS011;38063;53.210;6.504;2023-07-16T02:27:31;8.07;;;2.60;;
52057;SDS011;38063;53.210;6.504;2023-07-16T02:30:00;7.63;;;2.67;;
52057;SDS011;38063;53.210;6.504;2023-07-16T02:32:25;11.10;;;2.83;;
52057;SDS011;38063;53.210;6.504;2023-07-16T02:34:51;9.30;;;3.17;;
52057;SDS011;38063;53.210;6.504;2023-07-16T02:37:17;10.80;;;2.92;;
52057;SDS011;38063;53.210;6.504;2023-07-16T02:39:44;7.60;;;2.92;;
52057;SDS011;38063;53.210;6.504;2023-07-16T02:42:11;11.57;;;3.83;;
52057;SDS011;38063;53.210;6.504;2023-07-16T02:44:37;8.20;;;3.25;;
52057;SDS011;38063;53.210;6.504;2023-07-16T02:47:07;12.15;;;3.72;;
52057;SDS011;38063;53.210;6.504;2023-07-16T02:49:32;8.93;;;3.10;;
52057;SDS011;38063;53.210;6.504;2023-07-16T02:51:58;7.57;;;3.55;;
52057;SDS011;38063;53.210;6.504;2023-07-16T02:54:24;7.10;;;2.80;;
52057;SDS011;38063;53.210;6.504;2023-07-16T02:56:49;13.70;;;3.42;;
52057;SDS011;38063;53.210;6.504;2023-07-16T02:59:15;10.63;;;3.08;;
52057;SDS011;38063;53.210;6.504;2023-07-16T03:01:41;7.78;;;3.22;;
52057;SDS011;38063;53.210;6.504;2023-07-16T03:04:06;10.93;;;3.38;;
52057;SDS011;38063;53.210;6.504;2023-07-16T03:06:32;7.85;;;3.50;;
52057;SDS011;38063;53.210;6.504;2023-07-16T03:08:57;8.13;;;3.25;;
52057;SDS011;38063;53.210;6.504;2023-07-16T03:11:23;7.63;;;3.47;;
52057;SDS011;38063;53.210;6.504;2023-07-16T03:13:49;10.45;;;3.17;;
52057;SDS011;38063;53.210;6.504;2023-07-16T03:16:14;7.78;;;3.05;;
52057;SDS011;38063;53.210;6.504;2023-07-16T03:18:40;10.50;;;3.60;;
52057;SDS011;38063;53.210;6.504;2023-07-16T03:21:06;8.63;;;3.00;;
52057;SDS011;38063;53.210;6.504;2023-07-16T03:23:31;9.95;;;3.33;;
52057;SDS011;38063;53.210;6.504;2023-07-16T03:25:57;9.98;;;3.55;;
52057;SDS011;38063;53.210;6.504;2023-07-16T03:28:23;13.82;;;3.83;;
52057;SDS011;38063;53.210;6.504;2023-07-16T03:30:49;10.18;;;3.38;;
52057;SDS011;38063;53.210;6.504;2023-07-16T03:33:16;9.50;;;3.25;;
52057;SDS011;38063;53.210;6.504;2023-07-16T03:35:42;11.63;;;3.50;;
52057;SDS011;38063;53.210;6.504;2023-07-16T03:38:09;10.10;;;3.30;;
52057;SDS011;38063;53.210;6.504;2023-07-16T03:40:35;12.05;;;3.60;;
52057;SDS011;38063;53.210;6.504;2023-07-16T03:43:01;9.93;;;3.80;;
52057;SDS011;38063;53.210;6.504;2023-07-16T03:45:27;8.80;;;3.72;;
52057;SDS011;38063;53.210;6.504;2023-07-16T03:47:53;9.68;;;3.95;;
52057;SDS011;38063;53.210;6.504;2023-07-16T03:50:19;10.57;;;3.75;;
52057;SDS011;38063;53.210;6.504;2023-07-16T03:52:45;10.32;;;3.40;;
52057;SDS011;38063;53.210;6.504;2023-07-16T03:55:10;12.35;;;3.70;;
52057;SDS011;38063;53.210;6.504;2023-07-16T03:57:36;8.85;;;3.42;;
52057;SDS011;38063;53.210;6.504;2023-07-16T04:00:03;12.05;;;4.03;;
52057;SDS011;38063;53.210;6.504;2023-07-16T04:02:32;8.15;;;3.95;;
52057;SDS011;38063;53.210;6.504;2023-07-16T04:04:58;7.53;;;3.47;;
52057;SDS011;38063;53.210;6.504;2023-07-16T04:07:23;12.25;;;3.85;;
52057;SDS011;38063;53.210;6.504;2023-07-16T04:09:49;10.02;;;4.22;;
52057;SDS011;38063;53.210;6.504;2023-07-16T04:12:15;12.02;;;4.35;;
52057;SDS011;38063;53.210;6.504;2023-07-16T04:14:40;9.00;;;3.95;;
52057;SDS011;38063;53.210;6.504;2023-07-16T04:17:06;10.68;;;4.35;;
52057;SDS011;38063;53.210;6.504;2023-07-16T04:19:32;12.90;;;3.67;;
52057;SDS011;38063;53.210;6.504;2023-07-16T04:21:57;9.20;;;4.40;;
52057;SDS011;38063;53.210;6.504;2023-07-16T04:24:23;12.13;;;4.20;;
52057;SDS011;38063;53.210;6.504;2023-07-16T04:26:49;14.57;;;5.10;;
52057;SDS011;38063;53.210;6.504;2023-07-16T04:29:16;9.30;;;4.50;;
52057;SDS011;38063;53.210;6.504;2023-07-16T04:31:41;9.25;;;4.18;;
52057;SDS011;38063;53.210;6.504;2023-07-16T04:34:07;12.15;;;3.83;;
52057;SDS011;38063;53.210;6.504;2023-07-16T04:36:33;11.70;;;4.72;;
52057;SDS011;38063;53.210;6.504;2023-07-16T04:38:58;10.80;;;4.30;;
52057;SDS011;38063;53.210;6.504;2023-07-16T04:41:24;10.95;;;4.13;;
52057;SDS011;38063;53.210;6.504;2023-07-16T04:43:50;9.55;;;4.15;;
52057;SDS011;38063;53.210;6.504;2023-07-16T04:46:15;13.75;;;4.75;;
52057;SDS011;38063;53.210;6.504;2023-07-16T04:48:41;12.02;;;4.40;;
52057;SDS011;38063;53.210;6.504;2023-07-16T04:51:07;12.70;;;4.40;;
52057;SDS011;38063;53.210;6.504;2023-07-16T04:53:33;16.02;;;5.50;;
52057;SDS011;38063;53.210;6.504;2023-07-16T04:55:58;9.57;;;4.90;;
52057;SDS011;38063;53.210;6.504;2023-07-16T04:58:24;13.45;;;5.18;;
52057;SDS011;38063;53.210;6.504;2023-07-16T05:00:49;14.95;;;5.35;;
52057;SDS011;38063;53.210;6.504;2023-07-16T05:03:15;11.70;;;4.65;;
52057;SDS011;38063;53.210;6.504;2023-07-16T05:05:41;11.98;;;4.47;;
52057;SDS011;38063;53.210;6.504;2023-07-16T05:08:06;10.88;;;4.78;;
52057;SDS011;38063;53.210;6.504;2023-07-16T05:10:32;15.90;;;5.57;;
52057;SDS011;38063;53.210;6.504;2023-07-16T05:12:58;12.30;;;5.25;;
52057;SDS011;38063;53.210;6.504;2023-07-16T05:15:24;12.63;;;5.32;;
52057;SDS011;38063;53.210;6.504;2023-07-16T05:17:50;15.88;;;5.28;;
52057;SDS011;38063;53.210;6.504;2023-07-16T05:20:15;9.50;;;4.30;;
52057;SDS011;38063;53.210;6.504;2023-07-16T05:22:41;10.18;;;4.40;;
52057;SDS011;38063;53.210;6.504;2023-07-16T05:25:07;12.65;;;4.55;;
52057;SDS011;38063;53.210;6.504;2023-07-16T05:27:33;13.77;;;5.35;;
52057;SDS011;38063;53.210;6.504;2023-07-16T05:29:59;9.75;;;4.53;;
52057;SDS011;38063;53.210;6.504;2023-07-16T05:32:24;10.55;;;4.85;;
52057;SDS011;38063;53.210;6.504;2023-07-16T05:34:50;12.38;;;4.57;;
52057;SDS011;38063;53.210;6.504;2023-07-16T05:37:16;10.30;;;4.57;;
52057;SDS011;38063;53.210;6.504;2023-07-16T05:39:41;13.27;;;4.25;;
52057;SDS011;38063;53.210;6.504;2023-07-16T05:42:07;14.48;;;4.47;;
52057;SDS011;38063;53.210;6.504;2023-07-16T05:44:33;9.90;;;3.88;;
52057;SDS011;38063;53.210;6.504;2023-07-16T05:46:58;7.57;;;3.50;;
52057;SDS011;38063;53.210;6.504;2023-07-16T05:49:25;10.98;;;3.90;;
52057;SDS011;38063;53.210;6.504;2023-07-16T05:51:51;13.68;;;4.07;;
52057;SDS011;38063;53.210;6.504;2023-07-16T05:54:17;11.10;;;4.50;;
52057;SDS011;38063;53.210;6.504;2023-07-16T05:56:43;9.88;;;3.90;;
52057;SDS011;38063;53.210;6.504;2023-07-16T05:59:08;8.68;;;3.85;;
52057;SDS011;38063;53.210;6.504;2023-07-16T06:01:35;6.57;;;3.10;;
52057;SDS011;38063;53.210;6.504;2023-07-16T06:04:00;8.13;;;3.50;;
52057;SDS011;38063;53.210;6.504;2023-07-16T06:06:27;10.60;;;3.83;;
52057;SDS011;38063;53.210;6.504;2023-07-16T06:08:53;8.68;;;3.47;;
52057;SDS011;38063;53.210;6.504;2023-07-16T06:11:19;12.00;;;3.97;;
52057;SDS011;38063;53.210;6.504;2023-07-16T06:13:45;10.30;;;4.15;;
52057;SDS011;38063;53.210;6.504;2023-07-16T06:16:11;9.75;;;3.78;;
52057;SDS011;38063;53.210;6.504;2023-07-16T06:18:37;7.45;;;3.47;;
52057;SDS011;38063;53.210;6.504;2023-07-16T06:21:02;11.57;;;4.05;;
52057;SDS011;38063;53.210;6.504;2023-07-16T06:23:28;7.78;;;3.30;;
52057;SDS011;38063;53.210;6.504;2023-07-16T06:25:57;8.35;;;3.50;;
52057;SDS011;38063;53.210;6.504;2023-07-16T06:28:22;12.35;;;3.83;;
52057;SDS011;38063;53.210;6.504;2023-07-16T06:30:49;13.77;;;4.00;;
52057;SDS011;38063;53.210;6.504;2023-07-16T06:33:17;9.88;;;4.22;;
52057;SDS011;38063;53.210;6.504;2023-07-16T06:35:46;9.23;;;3.97;;
52057;SDS011;38063;53.210;6.504;2023-07-16T06:38:13;14.50;;;4.28;;
52057;SDS011;38063;53.210;6.504;2023-07-16T06:40:39;13.90;;;4.22;;
52057;SDS011;38063;53.210;6.504;2023-07-16T06:43:10;10.50;;;4.35;;
52057;SDS011;38063;53.210;6.504;2023-07-16T06:45:36;10.82;;;3.97;;
52057;SDS011;38063;53.210;6.504;2023-07-16T06:48:01;12.25;;;4.72;;
52057;SDS011;38063;53.210;6.504;2023-07-16T06:50:27;15.82;;;4.57;;
52057;SDS011;38063;53.210;6.504;2023-07-16T06:52:53;13.27;;;4.38;;
52057;SDS011;38063;53.210;6.504;2023-07-16T06:55:18;10.45;;;4.25;;
52057;SDS011;38063;53.210;6.504;2023-07-16T06:57:44;8.48;;;4.47;;
52057;SDS011;38063;53.210;6.504;2023-07-16T07:00:10;14.65;;;4.60;;
52057;SDS011;38063;53.210;6.504;2023-07-16T07:02:36;10.52;;;4.68;;
52057;SDS011;38063;53.210;6.504;2023-07-16T07:05:02;16.83;;;4.82;;
52057;SDS011;38063;53.210;6.504;2023-07-16T07:07:27;9.45;;;4.68;;
52057;SDS011;38063;53.210;6.504;2023-07-16T07:09:53;10.27;;;4.25;;
52057;SDS011;38063;53.210;6.504;2023-07-16T07:12:19;11.88;;;4.50;;
52057;SDS011;38063;53.210;6.504;2023-07-16T07:14:46;10.18;;;4.28;;
52057;SDS011;38063;53.210;6.504;2023-07-16T07:17:12;10.15;;;4.40;;
52057;SDS011;38063;53.210;6.504;2023-07-16T07:19:38;10.25;;;4.15;;
52057;SDS011;38063;53.210;6.504;2023-07-16T07:22:04;10.20;;;3.67;;
52057;SDS011;38063;53.210;6.504;2023-07-16T07:24:30;12.02;;;4.35;;
52057;SDS011;38063;53.210;6.504;2023-07-16T07:26:55;9.13;;;4.30;;
52057;SDS011;38063;53.210;6.504;2023-07-16T07:29:21;10.68;;;4.72;;
52057;SDS011;38063;53.210;6.504;2023-07-16T07:31:47;10.75;;;4.32;;
52057;SDS011;38063;53.210;6.504;2023-07-16T07:34:12;13.07;;;4.75;;
52057;SDS011;38063;53.210;6.504;2023-07-16T07:36:38;12.02;;;4.60;;
52057;SDS011;38063;53.210;6.504;2023-07-16T07:39:03;10.70;;;4.68;;
52057;SDS011;38063;53.210;6.504;2023-07-16T07:41:29;12.23;;;4.85;;
52057;SDS011;38063;53.210;6.504;2023-07-16T07:43:55;9.85;;;4.43;;
52057;SDS011;38063;53.210;6.504;2023-07-16T07:46:20;10.68;;;4.47;;
52057;SDS011;38063;53.210;6.504;2023-07-16T07:48:46;7.72;;;4.55;;
52057;SDS011;38063;53.210;6.504;2023-07-16T07:51:12;11.75;;;4.63;;
52057;SDS011;38063;53.210;6.504;2023-07-16T07:53:38;10.23;;;4.13;;
52057;SDS011;38063;53.210;6.504;2023-07-16T07:56:03;14.18;;;4.32;;
52057;SDS011;38063;53.210;6.504;2023-07-16T07:58:29;7.25;;;4.25;;
52057;SDS011;38063;53.210;6.504;2023-07-16T08:00:55;11.15;;;4.32;;
52057;SDS011;38063;53.210;6.504;2023-07-16T08:03:20;7.10;;;4.07;;
52057;SDS011;38063;53.210;6.504;2023-07-16T08:05:49;13.13;;;4.18;;
52057;SDS011;38063;53.210;6.504;2023-07-16T08:08:15;7.88;;;4.10;;
52057;SDS011;38063;53.210;6.504;2023-07-16T08:10:41;10.60;;;4.05;;
52057;SDS011;38063;53.210;6.504;2023-07-16T08:13:08;9.63;;;4.53;;
52057;SDS011;38063;53.210;6.504;2023-07-16T08:15:34;10.30;;;4.40;;
52057;SDS011;38063;53.210;6.504;2023-07-16T08:17:59;7.60;;;4.20;;
52057;SDS011;38063;53.210;6.504;2023-07-16T08:20:26;11.48;;;4.65;;
52057;SDS011;38063;53.210;6.504;2023-07-16T08:22:51;12.50;;;4.65;;
52057;SDS011;38063;53.210;6.504;2023-07-16T08:25:17;8.32;;;4.45;;
52057;SDS011;38063;53.210;6.504;2023-07-16T08:27:43;9.95;;;4.53;;
52057;SDS011;38063;53.210;6.504;2023-07-16T08:30:09;11.07;;;4.95;;
52057;SDS011;38063;53.210;6.504;2023-07-16T08:32:35;12.05;;;4.47;;
52057;SDS011;38063;53.210;6.504;2023-07-16T08:35:00;12.63;;;4.53;;
52057;SDS011;38063;53.210;6.504;2023-07-16T08:37:26;13.50;;;4.97;;
52057;SDS011;38063;53.210;6.504;2023-07-16T08:39:52;14.50;;;4.90;;
52057;SDS011;38063;53.210;6.504;2023-07-16T08:42:20;12.00;;;5.40;;
52057;SDS011;38063;53.210;6.504;2023-07-16T08:44:49;12.73;;;5.03;;
52057;SDS011;38063;53.210;6.504;2023-07-16T08:47:16;12.05;;;4.50;;
52057;SDS011;38063;53.210;6.504;2023-07-16T08:49:43;12.85;;;4.97;;
52057;SDS011;38063;53.210;6.504;2023-07-16T08:52:19;10.18;;;4.28;;
52057;SDS011;38063;53.210;6.504;2023-07-16T08:54:44;15.27;;;4.93;;
52057;SDS011;38063;53.210;6.504;2023-07-16T08:57:10;12.27;;;5.05;;
52057;SDS011;38063;53.210;6.504;2023-07-16T08:59:37;10.80;;;4.50;;
52057;SDS011;38063;53.210;6.504;2023-07-16T09:02:03;8.27;;;4.72;;
52057;SDS011;38063;53.210;6.504;2023-07-16T09:04:29;8.70;;;4.07;;
52057;SDS011;38063;53.210;6.504;2023-07-16T09:06:55;13.27;;;5.47;;
52057;SDS011;38063;53.210;6.504;2023-07-16T09:09:24;13.07;;;4.22;;
52057;SDS011;38063;53.210;6.504;2023-07-16T09:11:50;9.77;;;4.22;;
52057;SDS011;38063;53.210;6.504;2023-07-16T09:14:19;9.88;;;4.70;;
52057;SDS011;38063;53.210;6.504;2023-07-16T09:16:49;12.05;;;4.38;;
52057;SDS011;38063;53.210;6.504;2023-07-16T09:19:15;7.85;;;3.80;;
52057;SDS011;38063;53.210;6.504;2023-07-16T09:21:45;10.18;;;4.30;;
52057;SDS011;38063;53.210;6.504;2023-07-16T09:24:14;11.93;;;3.97;;
52057;SDS011;38063;53.210;6.504;2023-07-16T09:29:16;7.75;;;3.78;;
52057;SDS011;38063;53.210;6.504;2023-07-16T09:31:52;8.45;;;4.15;;
52057;SDS011;38063;53.210;6.504;2023-07-16T09:34:19;9.63;;;4.13;;
52057;SDS011;38063;53.210;6.504;2023-07-16T09:36:47;11.38;;;4.80;;
52057;SDS011;38063;53.210;6.504;2023-07-16T09:39:15;9.50;;;4.10;;
52057;SDS011;38063;53.210;6.504;2023-07-16T09:41:42;8.52;;;4.00;;
52057;SDS011;38063;53.210;6.504;2023-07-16T09:44:08;9.95;;;3.90;;
52057;SDS011;38063;53.210;6.504;2023-07-16T09:46:35;8.48;;;4.07;;
52057;SDS011;38063;53.210;6.504;2023-07-16T09:49:01;10.52;;;4.38;;
52057;SDS011;38063;53.210;6.504;2023-07-16T09:51:27;12.38;;;4.20;;
52057;SDS011;38063;53.210;6.504;2023-07-16T09:53:55;8.90;;;3.92;;
52057;SDS011;38063;53.210;6.504;2023-07-16T09:56:22;9.30;;;4.50;;
52057;SDS011;38063;53.210;6.504;2023-07-16T09:58:54;12.27;;;4.03;;
52057;SDS011;38063;53.210;6.504;2023-07-16T10:01:21;9.02;;;3.85;;
52057;SDS011;38063;53.210;6.504;2023-07-16T10:03:50;6.55;;;3.75;;
52057;SDS011;38063;53.210;6.504;2023-07-16T10:06:16;14.68;;;3.83;;
52057;SDS011;38063;53.210;6.504;2023-07-16T10:08:48;6.75;;;3.72;;
52057;SDS011;38063;53.210;6.504;2023-07-16T10:11:18;9.55;;;3.70;;
52057;SDS011;38063;53.210;6.504;2023-07-16T10:13:50;7.78;;;3.60;;
52057;SDS011;38063;53.210;6.504;2023-07-16T10:16:22;8.68;;;3.85;;
52057;SDS011;38063;53.210;6.504;2023-07-16T10:18:52;12.30;;;3.88;;
52057;SDS011;38063;53.210;6.504;2023-07-16T10:21:27;10.18;;;3.80;;
52057;SDS011;38063;53.210;6.504;2023-07-16T10:23:56;11.35;;;4.20;;
52057;SDS011;38063;53.210;6.504;2023-07-16T10:26:28;7.22;;;3.97;;
52057;SDS011;38063;53.210;6.504;2023-07-16T10:28:54;6.32;;;3.30;;
52057;SDS011;38063;53.210;6.504;2023-07-16T10:31:24;9.15;;;3.97;;
52057;SDS011;38063;53.210;6.504;2023-07-16T10:33:59;11.40;;;4.30;;
52057;SDS011;38063;53.210;6.504;2023-07-16T10:36:26;8.63;;;3.85;;
52057;SDS011;38063;53.210;6.504;2023-07-16T10:38:52;7.88;;;3.88;;
52057;SDS011;38063;53.210;6.504;2023-07-16T10:41:17;10.90;;;3.60;;
52057;SDS011;38063;53.210;6.504;2023-07-16T10:43:43;10.80;;;4.28;;
52057;SDS011;38063;53.210;6.504;2023-07-16T10:46:09;10.90;;;3.97;;
52057;SDS011;38063;53.210;6.504;2023-07-16T10:48:34;9.63;;;3.97;;
52057;SDS011;38063;53.210;6.504;2023-07-16T10:51:00;9.88;;;3.78;;
52057;SDS011;38063;53.210;6.504;2023-07-16T10:53:26;22.35;;;4.72;;
52057;SDS011;38063;53.210;6.504;2023-07-16T10:55:51;9.93;;;3.85;;
52057;SDS011;38063;53.210;6.504;2023-07-16T10:58:17;7.65;;;3.88;;
52057;SDS011;38063;53.210;6.504;2023-07-16T11:00:44;9.98;;;3.90;;
52057;SDS011;38063;53.210;6.504;2023-07-16T11:03:10;7.80;;;3.60;;
52057;SDS011;38063;53.210;6.504;2023-07-16T11:05:39;7.70;;;3.78;;
52057;SDS011;38063;53.210;6.504;2023-07-16T11:08:05;11.77;;;3.90;;
52057;SDS011;38063;53.210;6.504;2023-07-16T11:10:30;7.05;;;3.72;;
52057;SDS011;38063;53.210;6.504;2023-07-16T11:12:56;6.88;;;3.60;;
52057;SDS011;38063;53.210;6.504;2023-07-16T11:15:33;12.00;;;4.25;;
52057;SDS011;38063;53.210;6.504;2023-07-16T11:18:00;6.18;;;2.88;;
52057;SDS011;38063;53.210;6.504;2023-07-16T11:20:27;6.32;;;3.17;;
52057;SDS011;38063;53.210;6.504;2023-07-16T11:22:54;7.25;;;3.72;;
52057;SDS011;38063;53.210;6.504;2023-07-16T11:25:23;11.73;;;4.18;;
52057;SDS011;38063;53.210;6.504;2023-07-16T11:27:49;7.20;;;3.90;;
52057;SDS011;38063;53.210;6.504;2023-07-16T11:30:22;8.50;;;4.10;;
52057;SDS011;38063;53.210;6.504;2023-07-16T11:32:49;8.70;;;3.40;;
52057;SDS011;38063;53.210;6.504;2023-07-16T11:35:16;7.63;;;3.67;;
52057;SDS011;38063;53.210;6.504;2023-07-16T11:37:43;10.38;;;3.90;;
52057;SDS011;38063;53.210;6.504;2023-07-16T11:40:10;10.07;;;3.50;;
52057;SDS011;38063;53.210;6.504;2023-07-16T11:42:40;9.50;;;3.53;;
52057;SDS011;38063;53.210;6.504;2023-07-16T11:45:24;8.07;;;3.63;;
52057;SDS011;38063;53.210;6.504;2023-07-16T11:47:51;7.90;;;3.88;;
52057;SDS011;38063;53.210;6.504;2023-07-16T11:50:17;9.48;;;3.78;;
52057;SDS011;38063;53.210;6.504;2023-07-16T11:52:51;11.45;;;3.88;;
52057;SDS011;38063;53.210;6.504;2023-07-16T11:55:18;10.07;;;4.00;;
52057;SDS011;38063;53.210;6.504;2023-07-16T11:57:43;9.40;;;3.88;;
52057;SDS011;38063;53.210;6.504;2023-07-16T12:00:09;9.15;;;4.57;;
52057;SDS011;38063;53.210;6.504;2023-07-16T12:02:36;9.27;;;4.25;;
52057;SDS011;38063;53.210;6.504;2023-07-16T12:05:02;7.70;;;3.90;;
52057;SDS011;38063;53.210;6.504;2023-07-16T12:07:32;10.85;;;4.50;;
52057;SDS011;38063;53.210;6.504;2023-07-16T12:10:02;9.63;;;4.03;;
52057;SDS011;38063;53.210;6.504;2023-07-16T12:12:29;11.05;;;4.30;;
52057;SDS011;38063;53.210;6.504;2023-07-16T12:14:55;8.75;;;3.80;;
52057;SDS011;38063;53.210;6.504;2023-07-16T12:17:21;11.20;;;4.40;;
52057;SDS011;38063;53.210;6.504;2023-07-16T12:19:46;11.68;;;4.70;;
52057;SDS011;38063;53.210;6.504;2023-07-16T12:22:12;9.98;;;4.35;;
52057;SDS011;38063;53.210;6.504;2023-07-16T12:24:41;9.88;;;4.78;;
52057;SDS011;38063;53.210;6.504;2023-07-16T12:27:06;14.07;;;5.07;;
52057;SDS011;38063;53.210;6.504;2023-07-16T12:29:32;8.45;;;4.90;;
52057;SDS011;38063;53.210;6.504;2023-07-16T12:31:58;11.15;;;5.00;;
52057;SDS011;38063;53.210;6.504;2023-07-16T12:34:25;9.60;;;5.07;;
52057;SDS011;38063;53.210;6.504;2023-07-16T12:36:50;9.82;;;4.55;;
52057;SDS011;38063;53.210;6.504;2023-07-16T12:39:16;13.45;;;5.03;;
52057;SDS011;38063;53.210;6.504;2023-07-16T12:41:45;9.60;;;4.72;;
52057;SDS011;38063;53.210;6.504;2023-07-16T12:44:11;10.70;;;4.70;;
52057;SDS011;38063;53.210;6.504;2023-07-16T12:46:37;12.05;;;4.95;;
52057;SDS011;38063;53.210;6.504;2023-07-16T12:49:03;11.85;;;4.43;;
52057;SDS011;38063;53.210;6.504;2023-07-16T12:51:28;10.90;;;4.20;;
52057;SDS011;38063;53.210;6.504;2023-07-16T12:53:54;8.27;;;4.05;;
52057;SDS011;38063;53.210;6.504;2023-07-16T12:56:19;12.05;;;4.57;;
52057;SDS011;38063;53.210;6.504;2023-07-16T12:58:46;8.32;;;3.95;;
52057;SDS011;38063;53.210;6.504;2023-07-16T13:01:12;11.43;;;4.40;;
52057;SDS011;38063;53.210;6.504;2023-07-16T13:03:38;9.40;;;4.00;;
52057;SDS011;38063;53.210;6.504;2023-07-16T13:06:04;8.10;;;4.07;;
52057;SDS011;38063;53.210;6.504;2023-07-16T13:08:29;8.38;;;3.60;;
52057;SDS011;38063;53.210;6.504;2023-07-16T13:10:56;9.60;;;3.88;;
52057;SDS011;38063;53.210;6.504;2023-07-16T13:13:22;10.95;;;4.07;;
52057;SDS011;38063;53.210;6.504;2023-07-16T13:15:48;8.45;;;3.30;;
52057;SDS011;38063;53.210;6.504;2023-07-16T13:18:13;9.18;;;3.38;;
52057;SDS011;38063;53.210;6.504;2023-07-16T13:20:39;5.88;;;3.25;;
52057;SDS011;38063;53.210;6.504;2023-07-16T13:23:05;7.88;;;3.33;;
52057;SDS011;38063;53.210;6.504;2023-07-16T13:25:33;13.98;;;4.05;;
52057;SDS011;38063;53.210;6.504;2023-07-16T13:27:59;14.10;;;3.88;;
52057;SDS011;38063;53.210;6.504;2023-07-16T13:30:25;13.18;;;3.53;;
52057;SDS011;38063;53.210;6.504;2023-07-16T13:32:51;10.63;;;2.78;;
52057;SDS011;38063;53.210;6.504;2023-07-16T13:35:20;11.90;;;3.33;;
52057;SDS011;38063;53.210;6.504;2023-07-16T13:37:46;13.80;;;2.67;;
52057;SDS011;38063;53.210;6.504;2023-07-16T13:40:11;8.98;;;2.58;;
52057;SDS011;38063;53.210;6.504;2023-07-16T13:42:37;7.97;;;3.38;;
52057;SDS011;38063;53.210;6.504;2023-07-16T13:45:03;11.40;;;2.78;;
52057;SDS011;38063;53.210;6.504;2023-07-16T13:47:30;8.75;;;2.10;;
52057;SDS011;38063;53.210;6.504;2023-07-16T13:49:56;6.85;;;2.10;;
52057;SDS011;38063;53.210;6.504;2023-07-16T13:52:21;6.38;;;1.90;;
52057;SDS011;38063;53.210;6.504;2023-07-16T13:54:47;10.82;;;2.33;;
52057;SDS011;38063;53.210;6.504;2023-07-16T13:57:13;9.73;;;2.50;;
52057;SDS011;38063;53.210;6.504;2023-07-16T13:59:38;11.68;;;2.35;;
52057;SDS011;38063;53.210;6.504;2023-07-16T14:02:04;8.15;;;2.42;;
52057;SDS011;38063;53.210;6.504;2023-07-16T14:04:30;10.38;;;2.10;;
52057;SDS011;38063;53.210;6.504;2023-07-16T14:06:56;7.78;;;1.75;;
52057;SDS011;38063;53.210;6.504;2023-07-16T14:09:22;12.90;;;3.25;;
52057;SDS011;38063;53.210;6.504;2023-07-16T14:11:48;10.32;;;2.30;;
52057;SDS011;38063;53.210;6.504;2023-07-16T14:14:14;8.48;;;2.05;;
52057;SDS011;38063;53.210;6.504;2023-07-16T14:16:40;12.20;;;2.50;;
52057;SDS011;38063;53.210;6.504;2023-07-16T14:19:06;10.45;;;2.08;;
52057;SDS011;38063;53.210;6.504;2023-07-16T14:21:32;11.52;;;2.50;;
52057;SDS011;38063;53.210;6.504;2023-07-16T14:23:57;7.75;;;1.80;;
52057;SDS011;38063;53.210;6.504;2023-07-16T14:26:23;9.65;;;2.05;;
52057;SDS011;38063;53.210;6.504;2023-07-16T14:28:49;9.35;;;2.00;;
52057;SDS011;38063;53.210;6.504;2023-07-16T14:31:14;10.27;;;1.75;;
52057;SDS011;38063;53.210;6.504;2023-07-16T14:33:40;8.63;;;1.58;;
52057;SDS011;38063;53.210;6.504;2023-07-16T14:36:06;9.75;;;1.83;;
52057;SDS011;38063;53.210;6.504;2023-07-16T14:38:31;7.20;;;1.52;;
52057;SDS011;38063;53.210;6.504;2023-07-16T14:40:57;7.97;;;1.83;;
52057;SDS011;38063;53.210;6.504;2023-07-16T14:43:23;7.18;;;1.60;;
52057;SDS011;38063;53.210;6.504;2023-07-16T14:45:48;11.27;;;1.80;;